Time;durP1;ratioP1;P1;durP2;ratioP2;P2;SDS_P1;SDS_P2;PMS_P1;PMS_P2;Temp;Humidity;BMP_temperature;BMP_pressure;BME280_temperature;BME280_humidity;BME280_pressure;Samples;Min_cycle;Max_cycle;Signal;HPM_P1;HPM_P2
2023/06/21 00:01:44;;;;;;;8.15;6.45;;;;;;;;;;6212375;23;20020;-89
2023/06/21 00:04:10;;;;;;;7.60;6.55;;;;;;;;;;6211979;23;20394;-88
2023/06/21 00:06:38;;;;;;;11.18;7.95;;;;;;;;;;6211506;23;20016;-87
2023/06/21 00:09:04;;;;;;;8.05;6.78;;;;;;;;;;6211770;23;20027;-87
2023/06/21 00:11:31;;;;;;;8.75;6.75;;;;;;;;;;6211283;23;20015;-88
2023/06/21 00:13:57;;;;;;;8.00;6.22;;;;;;;;;;6209796;23;20071;-87
2023/06/21 00:16:23;;;;;;;7.78;6.70;;;;;;;;;;6211402;23;20334;-88
2023/06/21 00:18:49;;;;;;;9.95;7.47;;;;;;;;;;6210434;23;20377;-87
2023/06/21 00:21:15;;;;;;;9.20;7.32;;;;;;;;;;6210812;23;20012;-88
2023/06/21 00:23:44;;;;;;;8.25;7.15;;;;;;;;;;6211203;23;20145;-87
2023/06/21 00:26:10;;;;;;;9.07;7.57;;;;;;;;;;6211691;23;20099;-88
2023/06/21 00:28:37;;;;;;;8.27;6.80;;;;;;;;;;6210371;23;20017;-88
2023/06/21 00:31:03;;;;;;;10.95;8.05;;;;;;;;;;6211395;23;20012;-88
2023/06/21 00:33:29;;;;;;;10.05;7.22;;;;;;;;;;6209620;23;20009;-88
2023/06/21 00:35:55;;;;;;;8.32;6.82;;;;;;;;;;6209344;23;20016;-87
2023/06/21 00:38:21;;;;;;;9.10;7.35;;;;;;;;;;6209190;23;20092;-88
2023/06/21 00:40:49;;;;;;;8.75;7.38;;;;;;;;;;6208357;23;20012;-88
2023/06/21 00:43:16;;;;;;;9.52;7.13;;;;;;;;;;6207231;23;20038;-87
2023/06/21 00:45:45;;;;;;;9.52;7.22;;;;;;;;;;6209140;23;20020;-88
2023/06/21 00:48:11;;;;;;;7.60;6.57;;;;;;;;;;6209808;23;20319;-88
2023/06/21 00:50:41;;;;;;;10.15;7.55;;;;;;;;;;6211387;23;20084;-88
2023/06/21 00:53:08;;;;;;;10.05;7.70;;;;;;;;;;6209795;23;20016;-88
2023/06/21 00:55:34;;;;;;;11.18;9.18;;;;;;;;;;6209695;23;20091;-88
2023/06/21 00:58:00;;;;;;;9.30;8.00;;;;;;;;;;6209380;23;20480;-88
2023/06/21 01:00:26;;;;;;;9.95;7.75;;;;;;;;;;6208919;23;20458;-88
2023/06/21 01:02:54;;;;;;;11.13;8.00;;;;;;;;;;6209918;23;20012;-88
2023/06/21 01:05:21;;;;;;;11.60;8.15;;;;;;;;;;6211633;23;20358;-88
2023/06/21 01:08:05;;;;;;;11.05;8.52;;;;;;;;;;6212352;23;20019;-89
2023/06/21 01:10:50;;;;;;;10.15;8.20;;;;;;;;;;6211147;23;20024;-88
2023/06/21 01:13:16;;;;;;;12.05;9.57;;;;;;;;;;6211370;23;20312;-88
2023/06/21 01:16:02;;;;;;;11.88;8.48;;;;;;;;;;6209774;23;20311;-88
2023/06/21 01:18:29;;;;;;;12.77;9.40;;;;;;;;;;6210952;23;20021;-88
2023/06/21 01:20:59;;;;;;;13.32;9.98;;;;;;;;;;6211206;23;20017;-88
2023/06/21 01:23:45;;;;;;;12.88;9.27;;;;;;;;;;6211721;23;20309;-87
2023/06/21 01:26:30;;;;;;;12.55;9.02;;;;;;;;;;6192400;23;20092;-88
2023/06/21 01:29:05;;;;;;;12.20;9.40;;;;;;;;;;6212207;23;20044;-88
2023/06/21 01:31:31;;;;;;;11.27;9.27;;;;;;;;;;6210098;23;20349;-88
2023/06/21 01:33:58;;;;;;;12.50;9.32;;;;;;;;;;6211745;23;20012;-87
2023/06/21 01:36:24;;;;;;;12.65;9.55;;;;;;;;;;6209827;23;20012;-88
2023/06/21 01:38:54;;;;;;;13.65;10.10;;;;;;;;;;6212220;23;20062;-88
2023/06/21 01:41:20;;;;;;;13.13;10.25;;;;;;;;;;6211570;23;20050;-88
2023/06/21 01:43:46;;;;;;;13.32;10.32;;;;;;;;;;6211532;23;20091;-88
2023/06/21 01:46:13;;;;;;;12.73;9.50;;;;;;;;;;6211088;23;20333;-88
2023/06/21 01:48:40;;;;;;;15.40;12.32;;;;;;;;;;6211217;23;20024;-87
2023/06/21 01:51:06;;;;;;;17.38;10.95;;;;;;;;;;6211661;23;20020;-89
2023/06/21 01:53:33;;;;;;;16.27;11.43;;;;;;;;;;6211586;23;20449;-88
2023/06/21 01:56:01;;;;;;;15.18;11.25;;;;;;;;;;6212182;23;20013;-88
2023/06/21 01:58:28;;;;;;;14.85;11.77;;;;;;;;;;6210770;23;20017;-88
2023/06/21 02:00:54;;;;;;;14.90;11.77;;;;;;;;;;6210893;23;20012;-88
2023/06/21 02:03:21;;;;;;;14.70;12.02;;;;;;;;;;6183832;23;20023;-88
2023/06/21 02:05:48;;;;;;;15.68;11.52;;;;;;;;;;6209787;23;20369;-88
2023/06/21 02:08:18;;;;;;;15.32;10.73;;;;;;;;;;6209369;23;20012;-88
2023/06/21 02:10:47;;;;;;;14.43;11.05;;;;;;;;;;6211592;23;20027;-88
2023/06/21 02:13:14;;;;;;;18.08;12.38;;;;;;;;;;6212678;23;20516;-89
2023/06/21 02:15:43;;;;;;;16.10;12.10;;;;;;;;;;6212834;23;20024;-88
2023/06/21 02:18:09;;;;;;;14.50;11.00;;;;;;;;;;6211456;23;20453;-87
2023/06/21 02:20:37;;;;;;;18.83;12.48;;;;;;;;;;6212337;23;20009;-90
2023/06/21 02:23:03;;;;;;;19.02;14.05;;;;;;;;;;6212099;23;20042;-89
2023/06/21 02:25:29;;;;;;;19.13;13.73;;;;;;;;;;6210015;23;20017;-87
2023/06/21 02:27:55;;;;;;;19.65;14.70;;;;;;;;;;6211858;23;20016;-88
2023/06/21 02:30:22;;;;;;;21.10;15.93;;;;;;;;;;6210117;23;20044;-88
2023/06/21 02:32:48;;;;;;;20.25;15.73;;;;;;;;;;6208464;23;20425;-88
2023/06/21 02:35:14;;;;;;;22.60;15.50;;;;;;;;;;6208195;23;20009;-87
2023/06/21 02:37:40;;;;;;;23.92;16.55;;;;;;;;;;6206035;23;20464;-87
2023/06/21 02:40:13;;;;;;;25.58;15.68;;;;;;;;;;6209163;23;20102;-88
2023/06/21 02:42:39;;;;;;;26.85;16.60;;;;;;;;;;6210539;23;20013;-87
2023/06/21 02:45:06;;;;;;;23.80;17.20;;;;;;;;;;6211088;23;20013;-88
2023/06/21 02:47:32;;;;;;;27.52;18.48;;;;;;;;;;6210495;23;20020;-87
2023/06/21 02:49:58;;;;;;;23.20;16.05;;;;;;;;;;6210761;23;20067;-87
2023/06/21 02:52:24;;;;;;;24.05;16.27;;;;;;;;;;6210798;23;20055;-88
2023/06/21 02:54:52;;;;;;;23.77;16.38;;;;;;;;;;6211167;23;20012;-87
2023/06/21 02:57:18;;;;;;;25.92;16.88;;;;;;;;;;6209526;23;20095;-87
2023/06/21 02:59:44;;;;;;;22.35;16.02;;;;;;;;;;6211946;23;20016;-87
2023/06/21 03:02:11;;;;;;;21.40;15.35;;;;;;;;;;6209797;23;20052;-87
2023/06/21 03:04:37;;;;;;;26.67;17.27;;;;;;;;;;6209283;23;20456;-87
2023/06/21 03:07:05;;;;;;;23.90;16.65;;;;;;;;;;6209483;23;20012;-88
2023/06/21 03:09:31;;;;;;;26.27;16.27;;;;;;;;;;6209425;23;20012;-86
2023/06/21 03:11:57;;;;;;;21.40;15.70;;;;;;;;;;6210784;23;20647;-87
2023/06/21 03:14:24;;;;;;;27.38;17.20;;;;;;;;;;6210915;23;20087;-86
2023/06/21 03:16:50;;;;;;;24.60;15.25;;;;;;;;;;6211420;23;20008;-87
2023/06/21 03:19:17;;;;;;;21.90;15.00;;;;;;;;;;6208709;23;20020;-86
2023/06/21 03:21:43;;;;;;;24.25;15.25;;;;;;;;;;6206337;23;20021;-86
2023/06/21 03:24:09;;;;;;;24.58;14.77;;;;;;;;;;6210244;23;20021;-86
2023/06/21 03:26:35;;;;;;;25.25;16.45;;;;;;;;;;6210451;23;20048;-87
2023/06/21 03:29:02;;;;;;;24.60;17.02;;;;;;;;;;6208166;23;20067;-87
2023/06/21 03:31:28;;;;;;;23.35;16.30;;;;;;;;;;6209268;23;20067;-86
2023/06/21 03:33:55;;;;;;;25.77;16.90;;;;;;;;;;6210756;23;20008;-86
2023/06/21 03:36:21;;;;;;;23.15;16.30;;;;;;;;;;6207940;23;20023;-86
2023/06/21 03:38:47;;;;;;;25.48;16.17;;;;;;;;;;6209245;23;20012;-86
2023/06/21 03:41:13;;;;;;;28.35;17.00;;;;;;;;;;6205171;23;20071;-86
2023/06/21 03:43:39;;;;;;;22.27;16.30;;;;;;;;;;6207859;23;20443;-87
2023/06/21 03:46:05;;;;;;;26.33;15.65;;;;;;;;;;6207444;23;20008;-86
2023/06/21 03:48:31;;;;;;;26.23;17.35;;;;;;;;;;6209693;23;20017;-86
2023/06/21 03:50:57;;;;;;;24.15;15.98;;;;;;;;;;6209563;23;20024;-86
2023/06/21 03:53:23;;;;;;;24.25;15.98;;;;;;;;;;6209843;23;20449;-86
2023/06/21 03:55:49;;;;;;;24.63;16.45;;;;;;;;;;6210670;23;20019;-85
2023/06/21 03:58:15;;;;;;;25.95;16.55;;;;;;;;;;6210385;23;20431;-86
2023/06/21 04:00:41;;;;;;;26.27;16.58;;;;;;;;;;6208620;23;20009;-86
2023/06/21 04:03:07;;;;;;;27.05;17.00;;;;;;;;;;6210783;23;20325;-85
2023/06/21 04:05:33;;;;;;;26.45;17.08;;;;;;;;;;6209121;23;20013;-86
2023/06/21 04:07:59;;;;;;;26.63;17.05;;;;;;;;;;6208836;23;20059;-86
2023/06/21 04:10:25;;;;;;;25.48;16.83;;;;;;;;;;6209293;23;20334;-87
2023/06/21 04:12:51;;;;;;;26.65;17.60;;;;;;;;;;6209958;23;20017;-86
2023/06/21 04:15:17;;;;;;;25.90;17.60;;;;;;;;;;6210466;23;20019;-86
2023/06/21 04:17:43;;;;;;;25.95;16.25;;;;;;;;;;6210075;23;20156;-86
2023/06/21 04:20:15;;;;;;;25.48;16.15;;;;;;;;;;6211426;23;20098;-86
2023/06/21 04:22:41;;;;;;;27.45;18.13;;;;;;;;;;6213250;23;20361;-88
2023/06/21 04:25:08;;;;;;;25.85;16.92;;;;;;;;;;6213389;23;20134;-87
2023/06/21 04:27:34;;;;;;;26.73;17.77;;;;;;;;;;6213957;23;20168;-86
2023/06/21 04:30:00;;;;;;;35.10;22.70;;;;;;;;;;6217107;23;20016;-87
2023/06/21 04:32:32;;;;;;;29.33;18.05;;;;;;;;;;6230764;23;20071;-86
2023/06/21 04:35:01;;;;;;;29.70;20.75;;;;;;;;;;6230960;23;20020;-90
2023/06/21 04:37:28;;;;;;;29.75;19.00;;;;;;;;;;6230353;23;20336;-86
2023/06/21 04:39:55;;;;;;;31.73;21.25;;;;;;;;;;6218544;23;20016;-87
2023/06/21 04:42:21;;;;;;;28.00;19.02;;;;;;;;;;6209848;23;20344;-87
2023/06/21 04:44:50;;;;;;;31.92;21.10;;;;;;;;;;6209836;23;20067;-87
2023/06/21 04:47:17;;;;;;;32.28;20.35;;;;;;;;;;6210526;23;20020;-88
2023/06/21 04:49:43;;;;;;;31.10;19.67;;;;;;;;;;6212508;23;20080;-88
2023/06/21 04:52:09;;;;;;;31.50;20.27;;;;;;;;;;6210534;23;20095;-88
2023/06/21 04:54:36;;;;;;;29.40;20.35;;;;;;;;;;6210846;23;20038;-87
2023/06/21 04:57:03;;;;;;;28.35;17.27;;;;;;;;;;6209584;23;20044;-87
2023/06/21 04:59:30;;;;;;;32.83;20.10;;;;;;;;;;6212387;23;20013;-87
2023/06/21 05:01:56;;;;;;;31.17;19.70;;;;;;;;;;6211242;23;20076;-87
2023/06/21 05:04:22;;;;;;;31.38;21.35;;;;;;;;;;6212449;23;20013;-87
2023/06/21 05:06:48;;;;;;;32.67;19.02;;;;;;;;;;6212305;23;20016;-88
2023/06/21 05:09:14;;;;;;;32.60;20.17;;;;;;;;;;6210142;23;20016;-88
2023/06/21 05:11:40;;;;;;;34.10;21.38;;;;;;;;;;6210950;23;20016;-87
2023/06/21 05:14:06;;;;;;;31.27;19.98;;;;;;;;;;6211358;23;20019;-87
2023/06/21 05:16:32;;;;;;;37.83;22.75;;;;;;;;;;6206844;23;20100;-86
2023/06/21 05:18:58;;;;;;;31.73;20.23;;;;;;;;;;6210248;23;20028;-89
2023/06/21 05:21:24;;;;;;;33.50;20.48;;;;;;;;;;6208073;23;20016;-85
2023/06/21 05:23:50;;;;;;;32.88;21.45;;;;;;;;;;6210377;23;20012;-85
2023/06/21 05:26:16;;;;;;;38.25;26.77;;;;;;;;;;6208528;23;20012;-88
2023/06/21 05:28:42;;;;;;;37.80;21.80;;;;;;;;;;6210787;23;20095;-85
2023/06/21 05:31:09;;;;;;;32.50;20.05;;;;;;;;;;6210555;23;20504;-87
2023/06/21 05:33:35;;;;;;;33.58;19.38;;;;;;;;;;6211733;23;20198;-85
2023/06/21 05:36:02;;;;;;;30.58;19.85;;;;;;;;;;6210834;23;20450;-84
2023/06/21 05:38:28;;;;;;;34.38;20.52;;;;;;;;;;6208412;23;20025;-87
2023/06/21 05:40:54;;;;;;;33.65;20.33;;;;;;;;;;6209431;23;20067;-86
2023/06/21 05:43:20;;;;;;;36.28;22.25;;;;;;;;;;6209297;23;20017;-88
2023/06/21 05:45:46;;;;;;;36.15;22.75;;;;;;;;;;6210000;23;20499;-85
2023/06/21 05:48:12;;;;;;;31.90;20.75;;;;;;;;;;6209741;23;20019;-85
2023/06/21 05:50:38;;;;;;;33.88;21.27;;;;;;;;;;6210866;23;20020;-86
2023/06/21 05:53:04;;;;;;;35.58;22.05;;;;;;;;;;6209505;23;20013;-84
2023/06/21 05:55:30;;;;;;;30.48;19.67;;;;;;;;;;6210907;23;20319;-83
2023/06/21 05:57:56;;;;;;;30.02;19.02;;;;;;;;;;6210983;23;20013;-84
2023/06/21 06:00:22;;;;;;;31.67;20.70;;;;;;;;;;6211064;23;20019;-87
2023/06/21 06:02:48;;;;;;;33.95;21.73;;;;;;;;;;6210356;23;20386;-86
2023/06/21 06:05:16;;;;;;;32.67;21.00;;;;;;;;;;6208267;23;20066;-84
2023/06/21 06:07:42;;;;;;;31.52;19.67;;;;;;;;;;6211252;23;20012;-84
2023/06/21 06:10:09;;;;;;;30.80;18.52;;;;;;;;;;6209458;23;20075;-85
2023/06/21 06:12:35;;;;;;;27.15;18.13;;;;;;;;;;6210998;23;20019;-85
2023/06/21 06:15:01;;;;;;;31.00;18.23;;;;;;;;;;6210463;23;20088;-84
2023/06/21 06:17:27;;;;;;;32.75;19.75;;;;;;;;;;6211440;23;20009;-85
2023/06/21 06:19:53;;;;;;;32.65;20.95;;;;;;;;;;6209601;23;20016;-85
2023/06/21 06:22:19;;;;;;;30.67;20.17;;;;;;;;;;6208842;23;20021;-85
2023/06/21 06:24:47;;;;;;;29.05;18.55;;;;;;;;;;6210739;23;20334;-84
2023/06/21 06:27:13;;;;;;;28.55;18.60;;;;;;;;;;6209217;23;20508;-84
2023/06/21 06:29:40;;;;;;;29.30;18.88;;;;;;;;;;6210956;23;20016;-84
2023/06/21 06:32:06;;;;;;;27.65;18.65;;;;;;;;;;6211146;23;20374;-84
2023/06/21 06:34:32;;;;;;;27.80;16.90;;;;;;;;;;6210731;23;20353;-84
2023/06/21 06:36:58;;;;;;;28.77;18.83;;;;;;;;;;6184168;23;20021;-86
2023/06/21 06:39:24;;;;;;;26.52;17.83;;;;;;;;;;6206487;23;20008;-86
2023/06/21 06:41:50;;;;;;;21.88;17.27;;;;;;;;;;6209338;23;20047;-88
2023/06/21 06:44:16;;;;;;;23.17;14.80;;;;;;;;;;6209981;23;20035;-87
2023/06/21 06:46:42;;;;;;;20.35;14.95;;;;;;;;;;6210628;23;20464;-91
2023/06/21 06:49:08;;;;;;;21.92;13.93;;;;;;;;;;6207710;23;20035;-86
2023/06/21 06:51:34;;;;;;;21.85;13.50;;;;;;;;;;6208332;23;20295;-87
2023/06/21 06:54:00;;;;;;;22.08;15.00;;;;;;;;;;6207894;23;20444;-89
2023/06/21 06:56:26;;;;;;;16.58;11.13;;;;;;;;;;6208456;23;20071;-88
2023/06/21 06:58:52;;;;;;;14.75;10.23;;;;;;;;;;6208431;23;20532;-86
2023/06/21 07:01:18;;;;;;;18.25;11.23;;;;;;;;;;6205870;23;20021;-85
2023/06/21 07:03:44;;;;;;;13.40;9.90;;;;;;;;;;6211864;23;20020;-86
2023/06/21 07:06:10;;;;;;;13.68;8.18;;;;;;;;;;6211121;23;20046;-85
2023/06/21 07:08:36;;;;;;;14.32;8.48;;;;;;;;;;6207893;23;20016;-86
2023/06/21 07:11:02;;;;;;;15.18;10.05;;;;;;;;;;6210402;23;20084;-87
2023/06/21 07:13:28;;;;;;;10.75;7.88;;;;;;;;;;6210271;23;20048;-86
2023/06/21 07:15:54;;;;;;;9.45;6.20;;;;;;;;;;6210854;23;20080;-85
2023/06/21 07:18:20;;;;;;;8.48;6.07;;;;;;;;;;6207512;23;20017;-85
2023/06/21 07:20:46;;;;;;;7.68;5.47;;;;;;;;;;6208955;23;20385;-85
2023/06/21 07:23:12;;;;;;;8.30;5.75;;;;;;;;;;6210053;23;20020;-84
2023/06/21 07:25:38;;;;;;;7.65;5.85;;;;;;;;;;6208608;23;20023;-83
2023/06/21 07:28:04;;;;;;;7.65;5.93;;;;;;;;;;6210724;23;20020;-83
2023/06/21 07:30:30;;;;;;;7.65;5.85;;;;;;;;;;6210778;23;20016;-84
2023/06/21 07:32:56;;;;;;;5.75;5.00;;;;;;;;;;6210075;23;20071;-84
2023/06/21 07:35:22;;;;;;;8.35;5.88;;;;;;;;;;6210029;23;20434;-83
2023/06/21 07:37:48;;;;;;;7.95;6.05;;;;;;;;;;6208511;23;20028;-86
2023/06/21 07:40:15;;;;;;;6.78;5.20;;;;;;;;;;6210895;23;20030;-83
2023/06/21 07:42:41;;;;;;;6.05;5.03;;;;;;;;;;6210196;23;20035;-84
2023/06/21 07:45:07;;;;;;;7.90;6.50;;;;;;;;;;6209007;23;20458;-85
2023/06/21 07:47:33;;;;;;;6.80;5.35;;;;;;;;;;6208844;23;20017;-83
2023/06/21 07:49:59;;;;;;;8.77;5.25;;;;;;;;;;6210897;23;20016;-84
2023/06/21 07:52:25;;;;;;;9.23;5.75;;;;;;;;;;6182492;23;20135;-85
2023/06/21 07:54:51;;;;;;;7.55;4.75;;;;;;;;;;6208602;23;20013;-83
2023/06/21 07:57:18;;;;;;;6.82;4.88;;;;;;;;;;6207989;23;20012;-84
2023/06/21 07:59:45;;;;;;;6.80;5.65;;;;;;;;;;6207514;23;20029;-84
2023/06/21 08:02:13;;;;;;;8.75;5.75;;;;;;;;;;6210920;23;20040;-85
2023/06/21 08:04:39;;;;;;;5.50;4.47;;;;;;;;;;6210743;23;20040;-85
2023/06/21 08:07:05;;;;;;;5.00;4.40;;;;;;;;;;6209500;23;20014;-82
2023/06/21 08:09:31;;;;;;;7.03;5.00;;;;;;;;;;6214563;23;20024;-83
2023/06/21 08:11:59;;;;;;;8.05;4.88;;;;;;;;;;6210995;23;20095;-80
2023/06/21 08:14:25;;;;;;;6.00;4.95;;;;;;;;;;6211931;23;20042;-82
2023/06/21 08:16:51;;;;;;;6.57;4.50;;;;;;;;;;6212554;23;20131;-81
2023/06/21 08:19:17;;;;;;;8.05;5.07;;;;;;;;;;6212618;23;20012;-80
2023/06/21 08:21:44;;;;;;;5.40;4.32;;;;;;;;;;6211875;23;20019;-80
2023/06/21 08:24:10;;;;;;;6.03;4.03;;;;;;;;;;6212513;23;20319;-80
2023/06/21 08:26:36;;;;;;;4.53;4.03;;;;;;;;;;6211535;23;20096;-83
2023/06/21 08:29:02;;;;;;;6.22;5.18;;;;;;;;;;6213135;23;20315;-86
2023/06/21 08:31:28;;;;;;;6.40;4.88;;;;;;;;;;6213213;23;20021;-85
2023/06/21 08:33:54;;;;;;;4.68;3.65;;;;;;;;;;6215477;23;20335;-89
2023/06/21 08:36:20;;;;;;;6.32;4.20;;;;;;;;;;6217205;23;20031;-90
2023/06/21 08:38:46;;;;;;;6.50;3.97;;;;;;;;;;6217878;23;20013;-89
2023/06/21 08:41:12;;;;;;;8.25;3.67;;;;;;;;;;6213655;23;20059;-88
2023/06/21 08:43:39;;;;;;;3.75;3.30;;;;;;;;;;6214712;23;20016;-88
2023/06/21 08:46:06;;;;;;;4.47;3.22;;;;;;;;;;6215960;23;20092;-88
2023/06/21 08:48:32;;;;;;;5.18;3.58;;;;;;;;;;6214490;23;20106;-93
2023/06/21 08:50:59;;;;;;;3.78;3.25;;;;;;;;;;6213712;23;20509;-89
2023/06/21 08:53:34;;;;;;;4.68;2.85;;;;;;;;;;6211859;23;20376;-89
2023/06/21 08:56:01;;;;;;;5.00;2.63;;;;;;;;;;6211502;23;20024;-89
2023/06/21 08:58:28;;;;;;;3.45;2.78;;;;;;;;;;6213359;23;20377;-91
2023/06/21 09:00:54;;;;;;;4.13;3.15;;;;;;;;;;6211364;23;20021;-90
2023/06/21 09:03:35;;;;;;;4.68;3.25;;;;;;;;;;6213086;23;20048;-90
2023/06/21 09:06:03;;;;;;;4.88;3.10;;;;;;;;;;6213018;23;20016;-90
2023/06/21 09:08:31;;;;;;;3.90;3.50;;;;;;;;;;6212114;23;20380;-89
2023/06/21 09:10:57;;;;;;;4.47;3.42;;;;;;;;;;6213380;23;20026;-89
2023/06/21 09:13:27;;;;;;;4.32;3.13;;;;;;;;;;6213039;23;20020;-89
2023/06/21 09:15:57;;;;;;;3.40;2.75;;;;;;;;;;6211378;23;20012;-85
2023/06/21 09:18:24;;;;;;;3.83;2.40;;;;;;;;;;6208456;23;20395;-86
2023/06/21 09:20:50;;;;;;;4.28;2.72;;;;;;;;;;6211736;23;20012;-85
2023/06/21 09:23:16;;;;;;;2.75;2.55;;;;;;;;;;6210018;23;20017;-84
2023/06/21 09:25:44;;;;;;;3.80;3.45;;;;;;;;;;6211064;23;20087;-85
2023/06/21 09:28:11;;;;;;;7.00;4.00;;;;;;;;;;6211451;23;20016;-84
2023/06/21 09:30:37;;;;;;;4.35;3.95;;;;;;;;;;6209971;23;20164;-84
2023/06/21 09:33:03;;;;;;;3.97;3.20;;;;;;;;;;6209519;23;20016;-83
2023/06/21 09:35:29;;;;;;;4.18;3.25;;;;;;;;;;6211185;23;20332;-83
2023/06/21 09:37:55;;;;;;;4.30;2.42;;;;;;;;;;6210290;23;20016;-82
2023/06/21 09:40:21;;;;;;;3.70;2.20;;;;;;;;;;6210552;23;20016;-85
2023/06/21 09:42:47;;;;;;;3.35;2.53;;;;;;;;;;6212191;23;20438;-84
2023/06/21 09:45:17;;;;;;;4.00;2.88;;;;;;;;;;6210871;23;20020;-84
2023/06/21 09:47:43;;;;;;;3.47;2.78;;;;;;;;;;6211058;23;20050;-83
2023/06/21 09:50:10;;;;;;;3.30;2.70;;;;;;;;;;6211378;23;20016;-85
2023/06/21 09:52:36;;;;;;;3.65;2.60;;;;;;;;;;6210594;23;20012;-84
2023/06/21 09:55:03;;;;;;;4.57;3.33;;;;;;;;;;6212123;23;20013;-83
2023/06/21 09:57:30;;;;;;;4.97;2.75;;;;;;;;;;6211077;23;20013;-83
2023/06/21 09:59:58;;;;;;;2.67;2.47;;;;;;;;;;6210539;23;20056;-86
2023/06/21 10:02:25;;;;;;;4.95;2.95;;;;;;;;;;6211775;23;20028;-86
2023/06/21 10:04:56;;;;;;;3.08;2.50;;;;;;;;;;6213307;23;20092;-86
2023/06/21 10:07:24;;;;;;;3.47;2.72;;;;;;;;;;6211142;23;20406;-87
2023/06/21 10:09:50;;;;;;;3.85;2.60;;;;;;;;;;6211624;23;20442;-87
2023/06/21 10:12:16;;;;;;;2.38;1.92;;;;;;;;;;6210974;23;20023;-88
2023/06/21 10:14:42;;;;;;;4.85;1.95;;;;;;;;;;6210194;23;20016;-86
2023/06/21 10:17:09;;;;;;;3.08;1.98;;;;;;;;;;6210701;23;20039;-89
2023/06/21 10:19:35;;;;;;;3.28;2.30;;;;;;;;;;6211830;23;20013;-83
2023/06/21 10:22:12;;;;;;;3.05;2.47;;;;;;;;;;6211715;23;20047;-87
2023/06/21 10:24:50;;;;;;;3.08;2.08;;;;;;;;;;6212628;23;20319;-82
2023/06/21 10:27:17;;;;;;;2.72;2.50;;;;;;;;;;6212028;23;20024;-84
2023/06/21 10:29:44;;;;;;;3.40;2.40;;;;;;;;;;6212532;23;20070;-80
2023/06/21 10:32:11;;;;;;;2.67;1.83;;;;;;;;;;6212407;23;20063;-81
2023/06/21 10:34:56;;;;;;;3.97;2.28;;;;;;;;;;6212289;23;20052;-80
2023/06/21 10:37:27;;;;;;;3.55;2.22;;;;;;;;;;6213168;23;20016;-81
2023/06/21 10:39:55;;;;;;;3.72;2.47;;;;;;;;;;6215873;23;20012;-83
2023/06/21 10:42:22;;;;;;;3.65;2.47;;;;;;;;;;6213275;23;20075;-81
2023/06/21 10:44:50;;;;;;;3.45;2.40;;;;;;;;;;6212132;23;20018;-81
2023/06/21 10:47:16;;;;;;;3.53;2.53;;;;;;;;;;6211941;23;20012;-81
2023/06/21 10:49:42;;;;;;;3.35;2.50;;;;;;;;;;6210785;23;20099;-80
2023/06/21 10:52:09;;;;;;;2.80;2.50;;;;;;;;;;6211359;23;20044;-80
2023/06/21 10:54:35;;;;;;;3.13;1.95;;;;;;;;;;6211680;23;20437;-82
2023/06/21 10:57:01;;;;;;;2.92;2.08;;;;;;;;;;6210186;23;20024;-82
2023/06/21 10:59:27;;;;;;;2.72;2.17;;;;;;;;;;6209708;23;20028;-81
2023/06/21 11:01:53;;;;;;;2.55;2.30;;;;;;;;;;6211372;23;20044;-81
2023/06/21 11:04:19;;;;;;;2.60;1.75;;;;;;;;;;6211179;23;20081;-81
2023/06/21 11:06:45;;;;;;;2.30;2.05;;;;;;;;;;6212225;23;20009;-83
2023/06/21 11:09:12;;;;;;;4.25;3.45;;;;;;;;;;6211285;23;20020;-82
2023/06/21 11:11:40;;;;;;;3.45;2.75;;;;;;;;;;6210339;23;20066;-81
2023/06/21 11:14:06;;;;;;;3.35;2.40;;;;;;;;;;6211366;23;20013;-83
2023/06/21 11:16:35;;;;;;;3.08;2.20;;;;;;;;;;6184159;23;20048;-81
2023/06/21 11:19:06;;;;;;;3.50;2.55;;;;;;;;;;6210743;23;20063;-81
2023/06/21 11:21:41;;;;;;;2.67;2.10;;;;;;;;;;6211701;23;20018;-81
2023/06/21 11:24:10;;;;;;;2.00;1.90;;;;;;;;;;6209539;23;20087;-81
2023/06/21 11:26:57;;;;;;;3.05;1.85;;;;;;;;;;6211417;23;20380;-82
2023/06/21 11:29:27;;;;;;;4.05;1.65;;;;;;;;;;6209831;23;20043;-81
2023/06/21 11:31:53;;;;;;;;;;;;;;;;;;6210198;23;20020;-81
2023/06/21 11:34:23;;;;;;;2.65;1.80;;;;;;;;;;6211358;23;20014;-82
2023/06/21 11:36:49;;;;;;;;;;;;;;;;;;6212117;23;20014;-82
2023/06/21 11:39:15;;;;;;;2.13;1.55;;;;;;;;;;6210799;23;19986;-81
2023/06/21 11:41:45;;;;;;;3.50;1.90;;;;;;;;;;6213040;23;20016;-81
2023/06/21 11:44:12;;;;;;;2.80;1.45;;;;;;;;;;6212040;23;20031;-81
2023/06/21 11:46:42;;;;;;;3.50;2.00;;;;;;;;;;6212828;23;20016;-80
2023/06/21 11:49:08;;;;;;;2.58;1.90;;;;;;;;;;6211951;23;20058;-81
2023/06/21 11:51:35;;;;;;;1.90;1.70;;;;;;;;;;6212810;23;20019;-81
2023/06/21 11:54:01;;;;;;;3.83;2.30;;;;;;;;;;6212924;23;20095;-81
2023/06/21 11:56:31;;;;;;;3.67;2.47;;;;;;;;;;6211825;23;20017;-80
2023/06/21 11:58:58;;;;;;;3.28;2.25;;;;;;;;;;6212166;23;20072;-82
2023/06/21 12:01:24;;;;;;;2.28;2.08;;;;;;;;;;6212839;23;20036;-81
2023/06/21 12:03:59;;;;;;;3.90;2.20;;;;;;;;;;6212432;23;20012;-81
2023/06/21 12:06:26;;;;;;;2.88;2.30;;;;;;;;;;6212696;23;20012;-81
2023/06/21 12:08:58;;;;;;;3.95;3.03;;;;;;;;;;6210909;23;20012;-80
2023/06/21 12:11:27;;;;;;;3.58;2.75;;;;;;;;;;6210605;23;20012;-82
2023/06/21 12:13:53;;;;;;;3.47;2.58;;;;;;;;;;6212598;23;20035;-81
2023/06/21 12:16:19;;;;;;;3.22;2.00;;;;;;;;;;6212950;23;20040;-84
2023/06/21 12:18:45;;;;;;;3.67;2.20;;;;;;;;;;6186300;23;20384;-81
2023/06/21 12:21:12;;;;;;;3.03;1.95;;;;;;;;;;6213254;23;20020;-82
2023/06/21 12:23:38;;;;;;;2.63;1.90;;;;;;;;;;6212453;23;20027;-81
2023/06/21 12:26:04;;;;;;;2.40;1.77;;;;;;;;;;6212655;23;20063;-82
2023/06/21 12:28:31;;;;;;;2.92;1.90;;;;;;;;;;6212279;23;20139;-81
2023/06/21 12:30:58;;;;;;;2.83;1.80;;;;;;;;;;6211856;23;20444;-82
2023/06/21 12:33:50;;;;;;;2.70;2.50;;;;;;;;;;6210433;23;20016;-84
2023/06/21 12:36:18;;;;;;;3.58;2.13;;;;;;;;;;6201676;23;20031;-81
2023/06/21 12:38:51;;;;;;;2.85;2.45;;;;;;;;;;6210597;23;20021;-82
2023/06/21 12:41:18;;;;;;;2.85;2.55;;;;;;;;;;6210725;23;20071;-83
2023/06/21 12:43:45;;;;;;;4.72;2.50;;;;;;;;;;6212742;23;20366;-81
2023/06/21 12:46:11;;;;;;;3.03;2.35;;;;;;;;;;6212506;23;20063;-82
2023/06/21 12:48:43;;;;;;;3.38;2.80;;;;;;;;;;6212222;23;20017;-81
2023/06/21 12:51:09;;;;;;;3.80;2.50;;;;;;;;;;6212301;23;20019;-79
2023/06/21 12:53:39;;;;;;;3.15;2.83;;;;;;;;;;6211725;23;20016;-80
2023/06/21 12:56:10;;;;;;;3.03;2.80;;;;;;;;;;6210139;23;20048;-80
2023/06/21 12:58:36;;;;;;;2.90;2.58;;;;;;;;;;6210792;23;20016;-80
2023/06/21 13:01:03;;;;;;;2.55;2.35;;;;;;;;;;6210668;23;20008;-80
2023/06/21 13:03:29;;;;;;;2.70;1.92;;;;;;;;;;6210879;23;20020;-81
2023/06/21 13:05:56;;;;;;;2.78;2.28;;;;;;;;;;6209157;23;20047;-83
2023/06/21 13:08:23;;;;;;;2.40;2.10;;;;;;;;;;6210251;23;20441;-81
2023/06/21 13:10:49;;;;;;;2.70;2.10;;;;;;;;;;6209824;23;20021;-81
2023/06/21 13:13:15;;;;;;;2.53;1.90;;;;;;;;;;6210238;23;20056;-81
2023/06/21 13:15:41;;;;;;;3.33;1.95;;;;;;;;;;6210740;23;20071;-81
2023/06/21 13:18:07;;;;;;;3.25;2.17;;;;;;;;;;6211640;23;20075;-82
2023/06/21 13:20:35;;;;;;;1.75;1.65;;;;;;;;;;6212153;23;20012;-81
2023/06/21 13:23:02;;;;;;;4.32;2.20;;;;;;;;;;6211906;23;20028;-81
2023/06/21 13:25:28;;;;;;;3.00;1.58;;;;;;;;;;6211255;23;20013;-83
2023/06/21 13:27:54;;;;;;;2.88;2.42;;;;;;;;;;6211975;23;20023;-83
2023/06/21 13:30:20;;;;;;;2.00;1.80;;;;;;;;;;6211887;23;20013;-81
2023/06/21 13:32:46;;;;;;;1.70;1.40;;;;;;;;;;6211862;23;20016;-82
2023/06/21 13:35:12;;;;;;;2.90;1.58;;;;;;;;;;6211636;23;20430;-83
2023/06/21 13:37:38;;;;;;;2.00;1.55;;;;;;;;;;6211661;23;20020;-82
2023/06/21 13:40:05;;;;;;;2.25;1.58;;;;;;;;;;6211337;23;20013;-81
2023/06/21 13:42:31;;;;;;;2.58;1.60;;;;;;;;;;6211514;23;20012;-82
2023/06/21 13:44:57;;;;;;;2.80;1.35;;;;;;;;;;6212357;23;20021;-83
2023/06/21 13:47:23;;;;;;;1.83;1.55;;;;;;;;;;6212020;23;20012;-83
2023/06/21 13:49:49;;;;;;;1.90;1.55;;;;;;;;;;6212321;23;20017;-82
2023/06/21 13:52:16;;;;;;;2.83;1.58;;;;;;;;;;6212101;23;20091;-81
2023/06/21 13:54:43;;;;;;;1.60;1.48;;;;;;;;;;6212357;23;20326;-83
2023/06/21 13:57:14;;;;;;;1.73;1.23;;;;;;;;;;6211062;23;20016;-82
2023/06/21 13:59:40;;;;;;;1.52;1.10;;;;;;;;;;6212358;23;20009;-82
2023/06/21 14:02:08;;;;;;;1.25;1.15;;;;;;;;;;6211573;23;20024;-82
2023/06/21 14:04:34;;;;;;;1.45;1.02;;;;;;;;;;6209692;23;20043;-83
2023/06/21 14:07:00;;;;;;;1.77;1.20;;;;;;;;;;6210431;23;20020;-82
2023/06/21 14:09:26;;;;;;;1.00;0.90;;;;;;;;;;6182919;23;20342;-84
2023/06/21 14:11:52;;;;;;;3.05;1.95;;;;;;;;;;6212335;23;20088;-85
2023/06/21 14:14:18;;;;;;;1.23;1.10;;;;;;;;;;6211554;23;20413;-89
2023/06/21 14:16:44;;;;;;;1.70;1.17;;;;;;;;;;6210457;23;20009;-86
2023/06/21 14:19:10;;;;;;;3.42;1.75;;;;;;;;;;6210460;23;20446;-89
2023/06/21 14:21:36;;;;;;;2.05;1.00;;;;;;;;;;6211616;23;20140;-87
2023/06/21 14:24:02;;;;;;;1.90;0.95;;;;;;;;;;6208868;23;20025;-86
2023/06/21 14:26:28;;;;;;;2.63;1.60;;;;;;;;;;6211312;23;20266;-85
2023/06/21 14:28:54;;;;;;;2.15;1.15;;;;;;;;;;6212349;23;20437;-87
2023/06/21 14:31:20;;;;;;;1.73;1.17;;;;;;;;;;6211458;23;20017;-86
2023/06/21 14:33:46;;;;;;;1.55;1.10;;;;;;;;;;6211983;23;20080;-85